Repülésmeteorológia

  • METAR LHSM 271945Z 35009KT 6000 OVC083 08/07 Q1011=
  • METAR LHSM 271915Z 35010KT 6000 OVC083 09/07 Q1011=
  • METAR LHSM 271845Z 36010KT 6000 OVC083 09/07 Q1011=
  • METAR LHSM 271815Z 36009KT 8000 OVC083 09/06 Q1011=
  • METAR LHSM 271745Z 36009KT CAVOK 09/06 Q1011=

  • TAF LHSM 271100Z 2712/2721 34009KT 9999 SCT030 BKN080
  • TAF LHSM 270800Z 2709/2718 35008KT 9999 SCT030 BKN080
  • TAF LHSM 270500Z 2706/2715 34008KT 6000 NSC
  • TAF LHSM 261100Z 2612/2621 22016G26KT CAVOK
  • TAF LHSM 260800Z 2609/2618 18012KT CAVOK